To NAV CANADA Home Page Login to a new session Search on AWWS site Disclaimer Vers la page française équivalente Tips FAQ What's new on the site To the Forecasts and Observations / NOTAM section To "File a Flight Plan" website Publications and other links Update of the User's profile FIC Telephone Numbers My Weather Data Folder Route Weather Data Regional Weather Data Local Weather Data To the Forecasts and Observations / NOTAM section
Request Generated 11/13/2018 at 18:43:59 UTC . Weather information available at that time is displayed.

METAR/TAF

GANDER/GANDER INTL/NL    

METAR CYQX 131800Z 28013G19KT 20SM BKN032 BKN250 02/M05 A3008 RMK SC5CI1 CI TR SLP197=
METAR CYQX 131700Z 30011G18KT 20SM BKN034 03/M04 A3007 RMK SC6 SLP192=
METAR CYQX 131600Z 30016G21KT 20SM BKN032 03/M05 A3008 RMK SC7 SLP193=

TAF CYQX 131739Z 1318/1418 29010G20KT P6SM BKN030 TEMPO 1318/1322
BKN020
FM132200 29010G20KT P6SM SCT020 TEMPO 1322/1402 BKN020
FM140200 15005KT P6SM SCT030 OVC140
FM140600 16010KT 3/4SM -SN VV007
FM140800 15020KT 1/4SM +SN VV003
BECMG 1409/1411 14030G40KT
FM141100 14030G40KT 2SM -SNRA BR BKN003 OVC005 PROB30 1411/1413
4SM -PL BR
FM141300 14030G40KT 2SM -DZ BR OVC003
FM141500 23035G45KT P6SM SCT020 BKN030
RMK NXT FCST BY 140000Z=
Your time UTC time
Weather data provided by Environment Canada and NAV CANADA